createdAt,value
2022-08-10T00:01:53.149Z,2.20
2022-08-10T00:04:22.810Z,2.27
2022-08-10T00:06:53.080Z,2.30
2022-08-10T00:09:21.901Z,2.30
2022-08-10T00:11:50.503Z,2.50
2022-08-10T00:14:19.294Z,2.40
2022-08-10T00:16:49.347Z,2.20
2022-08-10T00:19:18.151Z,2.33
2022-08-10T00:21:47.420Z,2.40
2022-08-10T00:24:16.985Z,2.40
2022-08-10T00:27:58.657Z,2.30
2022-08-10T00:29:34.653Z,2.47
2022-08-10T00:32:05.088Z,2.17
2022-08-10T00:34:34.636Z,2.70
2022-08-10T00:37:03.270Z,2.50
2022-08-10T00:39:34.538Z,2.40
2022-08-10T00:42:08.276Z,2.27
2022-08-10T00:44:38.710Z,2.20
2022-08-10T00:47:22.727Z,2.30
2022-08-10T00:49:58.159Z,2.57
2022-08-10T00:52:28.554Z,2.70
2022-08-10T00:54:57.582Z,2.50
2022-08-10T00:57:26.750Z,2.47
2022-08-10T00:59:59.322Z,2.20
2022-08-10T01:02:32.380Z,2.50
2022-08-10T01:05:03.456Z,2.20
2022-08-10T01:07:51.914Z,2.30
2022-08-10T01:10:32.527Z,2.50
2022-08-10T01:13:07.063Z,2.20
2022-08-10T01:15:44.707Z,2.20
2022-08-10T01:18:18.698Z,2.20
2022-08-10T01:20:56.114Z,2.30
2022-08-10T01:23:51.585Z,2.23
2022-08-10T01:26:32.142Z,2.10
2022-08-10T01:29:28.670Z,2.20
2022-08-10T01:32:01.263Z,2.40
2022-08-10T01:34:34.806Z,2.00
2022-08-10T01:37:06.642Z,2.20
2022-08-10T01:39:39.310Z,2.50
2022-08-10T01:42:09.000Z,2.40
2022-08-10T01:44:43.476Z,2.43
2022-08-10T01:47:31.582Z,2.30
2022-08-10T01:50:03.648Z,2.70
2022-08-10T01:52:33.130Z,2.20
2022-08-10T01:55:01.742Z,2.20
2022-08-10T01:57:33.828Z,2.10
2022-08-10T02:00:04.208Z,2.30
2022-08-10T02:02:33.070Z,2.23
2022-08-10T02:05:04.999Z,2.50
2022-08-10T02:07:36.354Z,2.10
2022-08-10T02:10:10.163Z,2.67
2022-08-10T02:12:39.529Z,2.37
2022-08-10T02:15:13.590Z,2.40
2022-08-10T02:17:59.653Z,5.67
2022-08-10T02:20:34.203Z,7.73
2022-08-10T02:23:04.641Z,3.30
2022-08-10T02:25:42.121Z,2.60
2022-08-10T02:28:29.834Z,2.83
2022-08-10T02:31:06.241Z,2.60
2022-08-10T02:33:36.979Z,2.50
2022-08-10T02:36:07.850Z,2.30
2022-08-10T02:38:58.158Z,2.43
2022-08-10T02:45:12.731Z,2.40
2022-08-10T02:45:18.780Z,2.20
2022-08-10T02:47:23.757Z,2.70
2022-08-10T02:50:01.145Z,2.10
2022-08-10T02:52:33.468Z,2.17
2022-08-10T02:55:17.568Z,2.47
2022-08-10T02:58:16.767Z,2.37
2022-08-10T03:00:45.555Z,2.53
2022-08-10T03:03:20.455Z,2.70
2022-08-10T03:05:50.734Z,2.43
2022-08-10T03:08:22.535Z,2.40
2022-08-10T03:10:51.189Z,2.57
2022-08-10T03:13:20.763Z,2.40
2022-08-10T03:15:49.924Z,2.50
2022-08-10T03:18:20.267Z,2.30
2022-08-10T03:20:49.065Z,2.40
2022-08-10T03:23:19.356Z,2.23
2022-08-10T03:25:53.032Z,2.20
2022-08-10T03:28:24.721Z,2.47
2022-08-10T03:30:53.932Z,2.37
2022-08-10T03:33:24.538Z,2.37
2022-08-10T03:36:43.571Z,2.47
2022-08-10T03:38:43.650Z,2.30
2022-08-10T03:41:16.415Z,2.60
2022-08-10T03:43:46.223Z,2.70
2022-08-10T03:46:15.572Z,2.40
2022-08-10T03:48:49.701Z,2.50
2022-08-10T03:51:19.299Z,2.30
2022-08-10T03:54:06.086Z,2.10
2022-08-10T03:56:37.510Z,1.90
2022-08-10T03:59:07.422Z,2.07
2022-08-10T04:02:44.143Z,2.00
2022-08-10T04:04:26.419Z,1.90
2022-08-10T04:06:56.621Z,2.00
2022-08-10T04:09:29.642Z,1.87
2022-08-10T04:12:11.983Z,2.10
2022-08-10T04:14:49.349Z,1.93
2022-08-10T04:17:18.754Z,2.20
2022-08-10T04:20:13.332Z,1.93
2022-08-10T04:22:43.036Z,1.97
2022-08-10T04:25:12.104Z,1.60
2022-08-10T04:27:40.653Z,1.80
2022-08-10T04:30:10.167Z,1.93
2022-08-10T04:32:39.071Z,2.00
2022-08-10T04:35:12.717Z,1.87
2022-08-10T04:37:43.319Z,1.90
2022-08-10T04:40:28.495Z,2.00
2022-08-10T04:43:01.380Z,1.90
2022-08-10T04:45:48.327Z,2.00
2022-08-10T04:48:41.170Z,1.83
2022-08-10T04:51:18.388Z,1.90
2022-08-10T04:54:04.944Z,2.00
2022-08-10T04:56:37.258Z,1.97
2022-08-10T04:59:06.779Z,2.00
2022-08-10T05:02:22.081Z,2.20
2022-08-10T05:04:37.604Z,2.00
2022-08-10T05:07:10.742Z,1.80
2022-08-10T05:10:01.557Z,2.00
2022-08-10T05:12:29.353Z,2.10
2022-08-10T05:14:58.086Z,2.30
2022-08-10T05:17:26.755Z,2.00
2022-08-10T05:20:04.201Z,2.20
2022-08-10T05:22:40.853Z,2.50
2022-08-10T05:25:11.975Z,2.57
2022-08-10T05:27:41.252Z,2.13
2022-08-10T05:30:13.360Z,2.40
2022-08-10T05:32:56.339Z,2.40
2022-08-10T05:35:28.818Z,2.37
2022-08-10T05:38:19.664Z,2.27
2022-08-10T05:40:48.558Z,3.50
2022-08-10T05:43:25.784Z,3.80
2022-08-10T05:46:19.143Z,2.53
2022-08-10T05:48:57.589Z,2.70
2022-08-10T05:51:29.659Z,2.70
2022-08-10T05:54:04.873Z,2.40
2022-08-10T05:56:53.391Z,2.53
2022-08-10T06:00:33.201Z,2.40
2022-08-10T06:02:31.946Z,2.27
2022-08-10T06:05:09.244Z,2.20
2022-08-10T06:07:48.986Z,2.37
2022-08-10T06:10:31.678Z,2.30
2022-08-10T06:13:26.854Z,2.30
2022-08-10T06:16:02.202Z,2.13
2022-08-10T06:18:31.084Z,2.40
2022-08-10T06:21:00.577Z,2.10
2022-08-10T06:23:30.644Z,2.40
2022-08-10T06:26:09.554Z,2.20
2022-08-10T06:29:01.914Z,2.30
2022-08-10T06:31:47.130Z,2.10
2022-08-10T06:34:20.914Z,2.00
2022-08-10T06:36:49.551Z,2.13
2022-08-10T06:39:32.931Z,1.98
2022-08-10T06:42:16.262Z,2.13
2022-08-10T06:44:54.337Z,2.10
2022-08-10T06:47:27.007Z,1.80
2022-08-10T06:49:59.808Z,2.10
2022-08-10T06:52:31.131Z,2.00
2022-08-10T06:55:00.680Z,2.17
2022-08-10T06:57:32.787Z,2.10
2022-08-10T07:00:02.617Z,1.80
2022-08-10T07:02:34.063Z,2.10
2022-08-10T07:05:04.418Z,2.20
2022-08-10T07:07:36.986Z,2.00
2022-08-10T07:10:06.105Z,1.80
2022-08-10T07:12:37.163Z,2.17
2022-08-10T07:15:08.586Z,2.20
2022-08-10T07:17:39.719Z,2.20
2022-08-10T07:20:10.365Z,2.15
2022-08-10T07:23:54.138Z,2.70
2022-08-10T07:25:28.868Z,2.72
2022-08-10T07:28:01.959Z,2.50
2022-08-10T07:30:32.876Z,2.28
2022-08-10T07:33:02.961Z,2.08
2022-08-10T07:35:42.066Z,2.10
2022-08-10T07:38:18.996Z,2.45
2022-08-10T07:40:49.652Z,2.30
2022-08-10T07:43:23.183Z,2.10
2022-08-10T07:45:52.044Z,2.25
2022-08-10T07:48:24.161Z,2.10
2022-08-10T07:50:57.879Z,2.00
2022-08-10T07:53:28.597Z,1.77
2022-08-10T07:56:05.147Z,1.80
2022-08-10T07:58:52.014Z,2.80
2022-08-10T08:01:24.167Z,3.22
2022-08-10T08:04:05.531Z,5.18
2022-08-10T08:06:42.232Z,2.80
2022-08-10T08:09:11.417Z,3.60
2022-08-10T08:11:40.796Z,2.45
2022-08-10T08:14:11.819Z,2.78
2022-08-10T08:16:43.702Z,2.45
2022-08-10T08:19:37.990Z,2.63
2022-08-10T08:24:09.974Z,9.30
2022-08-10T08:24:52.491Z,8.52
2022-08-10T08:27:21.814Z,4.20
2022-08-10T08:29:53.516Z,2.20
2022-08-10T08:32:23.627Z,2.60
2022-08-10T08:34:56.092Z,3.10
2022-08-10T08:38:33.327Z,8.85
2022-08-10T08:40:20.166Z,7.15
2022-08-10T08:43:10.544Z,7.32
2022-08-10T08:46:01.532Z,4.40
2022-08-10T08:48:47.473Z,2.20
2022-08-10T08:52:06.269Z,3.55
2022-08-10T08:54:22.208Z,2.38
2022-08-10T08:56:57.635Z,2.38
2022-08-10T08:59:38.487Z,3.40
2022-08-10T09:02:19.656Z,2.30
2022-08-10T09:05:08.537Z,2.40
2022-08-10T09:08:02.250Z,2.30
2022-08-10T09:10:38.809Z,2.70
2022-08-10T09:13:19.094Z,5.40
2022-08-10T09:15:56.411Z,4.55
2022-08-10T09:18:35.442Z,3.00
2022-08-10T09:21:10.420Z,3.80
2022-08-10T09:24:01.956Z,5.88
2022-08-10T09:26:40.120Z,4.18
2022-08-10T09:29:12.466Z,4.32
2022-08-10T09:32:55.995Z,4.88
2022-08-10T09:36:20.491Z,4.63
2022-08-10T09:38:02.483Z,5.05
2022-08-10T09:41:02.255Z,5.85
2022-08-10T09:43:36.468Z,3.30
2022-08-10T09:46:12.807Z,10.77
2022-08-10T09:48:48.855Z,4.70
2022-08-10T09:51:46.654Z,3.55
2022-08-10T09:54:31.220Z,7.07
2022-08-10T09:57:45.100Z,2.53
2022-08-10T10:00:03.379Z,3.20
2022-08-10T10:02:38.996Z,3.35
2022-08-10T10:05:20.471Z,7.13
2022-08-10T10:07:55.210Z,2.80
2022-08-10T10:10:27.934Z,2.55
2022-08-10T10:13:00.290Z,3.10
2022-08-10T10:15:34.871Z,2.45
2022-08-10T10:18:25.579Z,2.25
2022-08-10T10:21:01.793Z,2.30
2022-08-10T10:23:40.131Z,2.50
2022-08-10T10:26:19.128Z,2.42
2022-08-10T10:31:54.137Z,2.47
2022-08-10T10:34:29.430Z,2.58
2022-08-10T10:36:58.605Z,2.33
2022-08-10T10:39:30.124Z,2.20
2022-08-10T10:42:23.347Z,2.40
2022-08-10T10:45:12.367Z,2.85
2022-08-10T10:47:55.268Z,3.17
2022-08-10T10:50:28.423Z,2.97
2022-08-10T10:53:04.747Z,2.30
2022-08-10T10:56:13.884Z,2.50
2022-08-10T10:58:40.587Z,2.42
2022-08-10T11:01:23.097Z,2.65
2022-08-10T11:03:59.888Z,2.35
2022-08-10T11:06:40.739Z,2.22
2022-08-10T11:10:07.914Z,2.13
2022-08-10T11:12:08.310Z,2.35
2022-08-10T11:14:45.832Z,2.47
2022-08-10T11:17:18.749Z,2.33
2022-08-10T11:20:02.226Z,2.30
2022-08-10T11:22:37.637Z,2.50
2022-08-10T11:25:12.703Z,2.30
2022-08-10T11:27:50.015Z,2.60
2022-08-10T11:30:21.272Z,2.50
2022-08-10T11:33:10.058Z,2.42
2022-08-10T11:35:42.746Z,2.40
2022-08-10T11:38:34.159Z,2.60
2022-08-10T11:41:12.790Z,2.78
2022-08-10T11:44:06.523Z,2.50
2022-08-10T11:46:37.754Z,2.47
2022-08-10T11:49:11.324Z,2.30
2022-08-10T11:51:45.050Z,2.28
2022-08-10T11:54:22.979Z,2.40
2022-08-10T11:56:57.236Z,2.50
2022-08-10T11:59:51.139Z,2.17
2022-08-10T12:02:30.971Z,2.10
2022-08-10T12:05:02.477Z,2.22
2022-08-10T12:08:54.647Z,2.47
2022-08-10T12:10:22.094Z,2.20
2022-08-10T12:12:55.898Z,2.40
2022-08-10T12:15:33.965Z,2.63
2022-08-10T12:18:05.023Z,2.33
2022-08-10T12:20:37.086Z,2.30
2022-08-10T12:23:12.211Z,2.50
2022-08-10T12:25:55.724Z,2.50
2022-08-10T12:28:51.554Z,2.47
2022-08-10T12:31:26.389Z,2.28
2022-08-10T12:34:05.655Z,2.30
2022-08-10T12:36:39.286Z,2.45
2022-08-10T12:39:12.497Z,2.40
2022-08-10T12:41:45.231Z,2.20
2022-08-10T12:44:17.648Z,2.35
2022-08-10T12:46:53.295Z,2.75
2022-08-10T12:49:27.927Z,3.17
2022-08-10T12:52:02.262Z,2.30
2022-08-10T12:54:36.185Z,2.20
2022-08-10T12:57:09.192Z,2.35
2022-08-10T12:59:43.230Z,2.10
2022-08-10T13:02:22.653Z,2.30
2022-08-10T13:04:51.947Z,2.40
2022-08-10T13:08:24.578Z,2.40
2022-08-10T13:10:16.281Z,2.40
2022-08-10T13:12:47.940Z,2.10
2022-08-10T13:15:45.896Z,2.10
2022-08-10T13:18:17.748Z,2.15
2022-08-10T13:20:51.992Z,2.20
2022-08-10T13:23:22.656Z,2.17
2022-08-10T13:25:53.696Z,2.08
2022-08-10T13:28:35.926Z,2.45
2022-08-10T13:31:11.277Z,2.40
2022-08-10T13:34:39.631Z,2.50
2022-08-10T13:36:39.044Z,2.30
2022-08-10T13:39:08.787Z,2.75
2022-08-10T13:41:41.198Z,2.28
2022-08-10T13:44:12.334Z,2.20
2022-08-10T13:46:42.401Z,2.10
2022-08-10T13:49:15.044Z,2.13
2022-08-10T13:51:57.111Z,2.10
2022-08-10T13:54:29.660Z,2.20
2022-08-10T13:56:59.252Z,2.45
2022-08-10T14:00:33.659Z,2.17
2022-08-10T14:02:32.843Z,2.25
2022-08-10T14:05:03.555Z,2.20
2022-08-10T14:07:33.342Z,2.15
2022-08-10T14:10:07.389Z,2.15
2022-08-10T14:12:37.376Z,2.13
2022-08-10T14:15:08.823Z,2.38
2022-08-10T14:17:44.146Z,2.42
2022-08-10T14:20:20.864Z,2.30
2022-08-10T14:22:50.442Z,2.60
2022-08-10T14:25:18.997Z,2.40
2022-08-10T14:28:02.116Z,2.35
2022-08-10T14:30:33.517Z,2.30
2022-08-10T14:33:04.365Z,2.22
2022-08-10T14:36:21.954Z,2.20
2022-08-10T14:38:30.992Z,2.15
2022-08-10T14:41:02.551Z,2.38
2022-08-10T14:43:40.610Z,2.22
2022-08-10T14:46:11.888Z,2.20
2022-08-10T14:48:47.753Z,2.30
2022-08-10T14:51:19.691Z,2.60
2022-08-10T14:53:54.158Z,2.20
2022-08-10T14:56:27.822Z,3.00
2022-08-10T14:59:06.133Z,5.47
2022-08-10T15:02:01.208Z,2.42
2022-08-10T15:04:28.540Z,1.90
2022-08-10T15:07:02.573Z,1.95
2022-08-10T15:10:00.072Z,2.20
2022-08-10T15:12:26.376Z,2.20
2022-08-10T15:14:56.963Z,2.10
2022-08-10T15:17:27.653Z,2.17
2022-08-10T15:20:02.600Z,2.55
2022-08-10T15:22:47.057Z,2.20
2022-08-10T15:25:25.524Z,2.15
2022-08-10T15:27:58.050Z,2.20
2022-08-10T15:30:40.775Z,2.10
2022-08-10T15:34:02.179Z,2.60
2022-08-10T15:37:30.752Z,2.17
2022-08-10T15:40:22.083Z,2.20
2022-08-10T15:42:35.404Z,2.03
2022-08-10T15:45:04.851Z,2.10
2022-08-10T15:47:44.811Z,1.85
2022-08-10T15:50:18.347Z,2.17
2022-08-10T15:53:00.505Z,2.50
2022-08-10T15:55:43.647Z,2.17
2022-08-10T15:58:19.786Z,2.38
2022-08-10T16:00:51.205Z,2.20
2022-08-10T16:03:25.949Z,2.40
2022-08-10T16:06:02.027Z,2.13
2022-08-10T16:08:56.880Z,2.20
2022-08-10T16:11:37.655Z,2.40
2022-08-10T16:14:09.169Z,2.30
2022-08-10T16:16:38.620Z,2.22
2022-08-10T16:19:13.513Z,2.45
2022-08-10T16:22:01.747Z,2.50
2022-08-10T16:24:35.773Z,2.05
2022-08-10T16:27:07.522Z,2.40
2022-08-10T16:29:56.024Z,2.78
2022-08-10T16:32:26.326Z,2.28
2022-08-10T16:34:55.787Z,2.30
2022-08-10T16:37:24.626Z,3.13
2022-08-10T16:39:58.008Z,2.50
2022-08-10T16:42:31.588Z,2.15
2022-08-10T16:45:04.886Z,1.98
2022-08-10T16:47:34.992Z,2.17
2022-08-10T16:50:07.298Z,2.33
2022-08-10T16:52:36.284Z,2.10
2022-08-10T16:55:17.129Z,2.20
2022-08-10T16:57:57.469Z,2.85
2022-08-10T17:00:27.657Z,2.58
2022-08-10T17:03:00.188Z,4.40
2022-08-10T17:06:09.803Z,3.53
2022-08-10T17:08:21.073Z,2.90
2022-08-10T17:10:51.601Z,2.78
2022-08-10T17:13:22.723Z,2.75
2022-08-10T17:15:54.306Z,2.47
2022-08-10T17:18:28.571Z,2.28
2022-08-10T17:20:59.675Z,1.80
2022-08-10T17:23:30.398Z,1.98
2022-08-10T17:26:02.925Z,1.90
2022-08-10T17:28:35.939Z,2.38
2022-08-10T17:31:39.767Z,2.17
2022-08-10T17:34:01.165Z,1.95
2022-08-10T17:36:33.711Z,1.95
2022-08-10T17:39:03.930Z,2.90
2022-08-10T17:41:33.688Z,2.80
2022-08-10T17:44:05.825Z,2.83
2022-08-10T17:46:36.301Z,2.70
2022-08-10T17:49:08.016Z,2.20
2022-08-10T17:51:37.437Z,2.30
2022-08-10T17:54:09.068Z,2.20
2022-08-10T17:56:38.089Z,2.00
2022-08-10T17:59:17.351Z,2.10
2022-08-10T18:01:58.939Z,2.10
2022-08-10T18:04:41.580Z,2.30
2022-08-10T18:07:11.935Z,2.10
2022-08-10T18:09:43.346Z,2.60
2022-08-10T18:12:18.469Z,2.40
2022-08-10T18:14:50.961Z,2.22
2022-08-10T18:17:21.903Z,2.38
2022-08-10T18:19:54.487Z,2.30
2022-08-10T18:22:24.303Z,2.13
2022-08-10T18:24:53.560Z,2.00
2022-08-10T18:27:22.895Z,2.10
2022-08-10T18:30:14.786Z,2.10
2022-08-10T18:32:49.533Z,2.30
2022-08-10T18:35:20.021Z,2.65
2022-08-10T18:37:51.309Z,11.75
2022-08-10T18:40:20.454Z,7.70
2022-08-10T18:42:53.567Z,4.65
2022-08-10T18:45:27.822Z,2.90
2022-08-10T18:48:01.772Z,2.45
2022-08-10T18:50:32.495Z,2.60
2022-08-10T18:53:02.518Z,2.40
2022-08-10T18:55:39.817Z,2.60
2022-08-10T18:58:51.344Z,2.58
2022-08-10T19:01:35.082Z,2.50
2022-08-10T19:04:28.701Z,2.55
2022-08-10T19:07:16.805Z,2.72
2022-08-10T19:09:53.512Z,2.30
2022-08-10T19:12:43.098Z,2.47
2022-08-10T19:15:24.130Z,2.23
2022-08-10T19:18:08.276Z,2.58
2022-08-10T19:20:40.782Z,2.40
2022-08-10T19:23:27.775Z,2.47
2022-08-10T19:26:43.041Z,2.60
2022-08-10T19:29:04.844Z,2.20
2022-08-10T19:31:44.982Z,2.33
2022-08-10T19:34:34.876Z,2.20
2022-08-10T19:37:10.707Z,2.20
2022-08-10T19:39:53.350Z,1.93
2022-08-10T19:42:30.131Z,2.30
2022-08-10T19:45:05.999Z,2.40
2022-08-10T19:47:39.853Z,2.40
2022-08-10T19:50:14.463Z,2.23
2022-08-10T19:52:50.171Z,2.40
2022-08-10T19:55:22.979Z,2.50
2022-08-10T19:57:55.930Z,1.97
2022-08-10T20:00:29.259Z,2.17
2022-08-10T20:03:12.492Z,2.50
2022-08-10T20:06:18.099Z,2.30
2022-08-10T20:08:45.899Z,2.40
2022-08-10T20:11:45.917Z,2.53
2022-08-10T20:14:22.163Z,2.30
2022-08-10T20:16:55.921Z,2.50
2022-08-10T20:19:52.813Z,2.97
2022-08-10T20:22:28.786Z,2.30
2022-08-10T20:25:03.237Z,2.40
2022-08-10T20:27:58.200Z,2.27
2022-08-10T20:30:25.287Z,2.30
2022-08-10T20:32:58.322Z,2.80
2022-08-10T20:35:28.191Z,3.10
2022-08-10T20:38:06.030Z,2.63
2022-08-10T20:40:42.968Z,2.77
2022-08-10T20:43:21.626Z,2.17
2022-08-10T20:46:08.321Z,2.70
2022-08-10T20:48:41.984Z,2.37
2022-08-10T20:51:22.452Z,2.43
2022-08-10T20:53:57.220Z,2.27
2022-08-10T20:56:43.838Z,2.27
2022-08-10T20:59:33.660Z,2.83
2022-08-10T21:02:26.661Z,2.47
2022-08-10T21:04:59.218Z,2.47
2022-08-10T21:08:00.938Z,2.70
2022-08-10T21:10:42.910Z,2.50
2022-08-10T21:13:22.280Z,2.50
2022-08-10T21:16:02.031Z,2.70
2022-08-10T21:18:51.911Z,2.50
2022-08-10T21:21:41.165Z,2.43
2022-08-10T21:24:13.667Z,2.50
2022-08-10T21:26:51.113Z,2.50
2022-08-10T21:29:39.627Z,3.07
2022-08-10T21:32:17.943Z,2.93
2022-08-10T21:35:08.969Z,2.50
2022-08-10T21:37:42.790Z,4.67
2022-08-10T21:41:18.082Z,12.47
2022-08-10T21:44:02.699Z,14.97
2022-08-10T21:46:59.391Z,6.23
2022-08-10T21:49:57.455Z,5.87
2022-08-10T21:53:00.742Z,8.63
2022-08-10T21:56:00.377Z,3.67
2022-08-10T21:58:51.232Z,3.97
2022-08-10T22:01:45.884Z,3.57
2022-08-10T22:04:38.897Z,4.10
2022-08-10T22:07:26.919Z,6.53
2022-08-10T22:10:14.393Z,3.37
2022-08-10T22:13:08.625Z,3.20
2022-08-10T22:16:05.363Z,3.00
2022-08-10T22:19:03.609Z,4.93
2022-08-10T22:22:02.097Z,3.50
2022-08-10T22:25:06.930Z,3.03
2022-08-10T22:28:03.541Z,2.80
2022-08-10T22:31:22.835Z,2.60
2022-08-10T22:34:02.667Z,3.30
2022-08-10T22:37:09.012Z,2.70
2022-08-10T22:40:13.051Z,3.17
2022-08-10T22:43:10.472Z,2.70
2022-08-10T22:46:03.947Z,2.43
2022-08-10T22:48:51.029Z,2.80
2022-08-10T22:51:24.517Z,3.00
2022-08-10T22:54:30.786Z,2.70
2022-08-10T22:57:19.367Z,2.80
2022-08-10T22:59:49.304Z,2.80
2022-08-10T23:02:29.226Z,3.40
2022-08-10T23:05:04.834Z,4.27
2022-08-10T23:07:38.130Z,3.70
2022-08-10T23:10:09.646Z,4.33
2022-08-10T23:12:41.807Z,3.03
2022-08-10T23:15:39.089Z,3.43
2022-08-10T23:18:26.895Z,3.20
2022-08-10T23:20:57.148Z,3.10
2022-08-10T23:23:29.809Z,2.87
2022-08-10T23:26:00.791Z,3.10
2022-08-10T23:28:38.975Z,6.57
2022-08-10T23:31:58.347Z,8.00
2022-08-10T23:34:13.206Z,10.23
2022-08-10T23:36:42.939Z,14.83
2022-08-10T23:39:26.577Z,2.90
2022-08-10T23:42:04.603Z,7.03
2022-08-10T23:44:36.728Z,12.77
2022-08-10T23:47:05.803Z,10.43
2022-08-10T23:49:36.754Z,5.00
2022-08-10T23:52:13.420Z,3.57
2022-08-10T23:54:50.165Z,7.40
2022-08-10T23:57:21.322Z,9.10
2022-08-10T23:59:55.294Z,6.80
